x

West Santa Barbara 38 Nm West Of Santa Barbara, Ca (46054) Wave Buoy

8:50 - Tue 28th Mar 2017 All times are PDT. -7 hours from GMT.

  • Sig Wave height 13.1ft
  • Swell Direction
  • Peak Period 17s
  • Average Period 9s
  • Wind
    27mph, 31mph gusts
  • Sea Temp 54°f
  • Air Temp 55°f
  • Sea Pressure 1017mb
  • West Santa Barbara  38 Nm West Of Santa Barbara, Ca
  • West Santa Barbara  38 Nm West Of Santa Barbara, Ca

More Historic Weather Station data

Upgrade to MSW Pro to gain access to the past 30 days of data for over 8000 Wavebouys and Weather Stations around the globe.

Join Pro

Comparision Forecast

View Surf forecast
   
mar. 03/28 8:50 13ft 17s 9s 27 31 mph 1017mb 54f 55f
7:50 11ft 17s 8s 27 31 mph 1017mb 54f 56f
6:50 12ft 17s 8s 29 36 mph 1016.7mb 55f 56f
5:50 11ft 17s 8s 27 34 mph 1016.7mb 55f 56f
4:50 10.5ft 17s 7s 29 36 mph 1016.9mb 55f 55f
3:50 10ft 17s 7s 25 31 mph 1018mb 55f 55f
7:50 10ft 11s 7s 27 31 mph 1019.4mb 55f 55f
6:50 10ft 9s 7s 29 36 mph 1018.5mb 55f 55f
5:50 11ft 10s 7s 27 34 mph 1018.2mb 55f 55f
4:50 11ft 10s 8s 25 29 mph 1018.7mb 55f 55f
3:50 11ft 10s 8s 25 29 mph 1018.6mb 55f 55f
2:50 12ft 9s 8s 22 27 mph 1019.2mb 55f 56f
1:50 12ft 9s 7s 22 27 mph 1019.8mb 55f 56f
12:50 11ft 9s 7s 27 31 mph 1019mb 55f 55f
lun. 03/27 11:50 11.5ft 9s 7s 31 38 mph 1019.2mb 56f 55f
10:50 13ft 9s 7s 27 34 mph 1019.6mb 56f 55f
9:50 12ft 9s 7s 31 40 mph 1019.3mb 56f 55f
8:50 11.5ft 8s 7s 31 40 mph 1018.3mb 56f 56f
7:50 11ft 9s 6s 31 38 mph 1018mb 56f 56f
6:50 11ft 7s 6s 29 36 mph 1017.8mb 56f 56f
5:50 10ft 8s 6s 34 43 mph 1017.5mb 56f 56f
4:50 8.5ft 8s 6s 34 43 mph 1018.4mb 56f 56f
3:50 8.5ft 7s 6s 31 38 mph 1018.9mb 56f 56f
2:50 8ft 7s 6s 29 36 mph 1019.1mb 56f 56f
1:50 8ft 8s 6s 27 34 mph 1019.3mb 56f 56f
12:50 8ft 12s 6s 27 31 mph 1019.2mb 56f 56f
11:50 8ft 7s 6s 25 29 mph 1019.5mb 56f 56f
10:50 7.5ft 6s 6s 25 31 mph 1020mb 56f 56f
9:50 7ft 11s 6s 22 27 mph 1019.6mb 56f 56f
8:50 7ft 11s 6s 25 31 mph 1019.5mb 56f 56f
7:50 7ft 11s 6s 27 36 mph 1019.1mb 56f 56f
6:50 5.5ft 12s 6s 20 25 mph 1018.5mb 56f 56f
5:50 6ft 11s 7s 22 25 mph 1018mb 56f 56f
4:50 6ft 11s 8s 16 20 mph 1018mb 56f 55f
3:50 6.5ft 11s 8s 13 18 mph 1018.2mb 56f 55f
2:50 5.5ft 12s 7s 13 16 mph 1018.4mb 56f 56f
1:50 6ft 12s 7s 13 18 mph 1018.9mb 56f 56f
12:50 7ft 12s 7s 18 20 mph 1019mb 56f 56f
dim. 03/26 11:50 6ft 12s 7s 16 20 mph 1019mb 56f 56f
10:50 7ft 13s 7s 18 20 mph 1019.1mb 56f 56f
9:50 7ft 14s 7s 20 25 mph 1019mb 56f 56f
8:50 6ft 14s 7s 18 22 mph 1018.7mb 56f 56f
7:50 7.5ft 14s 7s 20 22 mph 1018.3mb 56f 56f
6:50 7.5ft 14s 7s 20 25 mph 1018.1mb 56f 56f
5:50 8ft 11s 7s 20 25 mph 1018.2mb 56f 56f
4:50 8ft 14s 7s 25 29 mph 1018.4mb 57f 56f
3:50 8ft 14s 7s 25 29 mph 1018.5mb 57f 56f
2:50 8.5ft 14s 7s 22 27 mph 1019mb 57f 56f
1:50 8ft 12s 7s 25 29 mph 1019.5mb 56f 56f
12:50 9ft 14s 7s 25 29 mph 1019.5mb 56f 56f
11:50 9ft 14s 7s 22 29 mph 1019.3mb 56f 56f
10:50 9.5ft 14s 8s 20 25 mph 1018.9mb 56f 56f
9:50 9.5ft 14s 7s 20 25 mph 1018.5mb 56f 56f
8:50 10ft 13s 8s 22 27 mph 1018mb 56f 56f
7:50 9.5ft 14s 8s 20 25 mph 1017.4mb 56f 55f
6:50 8ft 14s 7s 20 25 mph 1016.9mb 56f 55f
5:50 9ft 14s 7s 25 27 mph 1016.8mb 56f 55f
4:50 9.5ft 14s 7s 25 29 mph 1016.6mb 56f 56f
3:50 9ft 14s 7s 25 31 mph 1016.8mb 56f 56f
2:50 9ft 15s 7s 25 29 mph 1017.2mb 56f 56f
1:50 8.5ft 15s 7s 25 29 mph 1017.4mb 57f 56f
12:50 8ft 15s 7s 25 31 mph 1017.7mb 57f 56f
sam. 03/25 11:50 8.5ft 15s 7s 25 29 mph 1017.9mb 57f 56f
10:50 8.5ft 16s 7s 22 29 mph 1018.2mb 57f 56f
9:50 7.5ft 16s 7s 25 31 mph 1018.7mb 57f 56f
8:50 9ft 16s 7s 25 29 mph 1018.3mb 57f 56f
7:50 8ft 16s 7s 25 31 mph 1017.8mb 57f 57f
6:50 8ft 16s 7s 27 31 mph 1017.7mb 57f 57f
5:50 8.5ft 10s 7s 27 34 mph 1017.5mb 57f 57f
4:50 7ft 16s 6s 25 31 mph 1018mb 57f 57f
3:50 7ft 10s 7s 25 29 mph 1018.6mb 57f 57f
2:50 6.5ft 10s 6s 22 29 mph 1018.9mb 57f 56f
1:50 6.5ft 10s 7s 22 25 mph 1019.7mb 57f 57f
12:50 6ft 11s 7s 22 27 mph 1020.2mb 57f 57f
11:50 6ft 13s 7s 18 22 mph 1020.3mb 57f 57f
10:50 6ft 11s 7s 16 20 mph 1020mb 57f 57f
9:50 6ft 12s 7s 16 20 mph 1020mb 57f 56f
8:50 6.5ft 14s 7s 16 20 mph 1020mb 57f 56f
7:50 7ft 14s 8s 18 22 mph 1019.7mb 57f 57f
6:50 7ft 11s 8s 18 20 mph 1019.1mb 57f 57f
5:50 7ft 11s 9s 2 4 mph 1019.3mb 57f 57f